Time;durP1;ratioP1;P1;durP2;ratioP2;P2;SDS_P1;SDS_P2;PMS_P1;PMS_P2;Temp;Humidity;BMP_temperature;BMP_pressure;BME280_temperature;BME280_humidity;BME280_pressure;Samples;Min_cycle;Max_cycle;Signal;HPM_P1;HPM_P2
2022/11/13 00:00:24;;;;;;;;;;;5.60;99.90;;;;;;5156683;27;19971;-40
2022/11/13 00:02:49;;;;;;;;;;;5.60;99.90;;;;;;5156489;27;19911;-41
2022/11/13 00:05:15;;;;;;;;;;;5.60;99.90;;;;;;5156867;27;19915;-40
2022/11/13 00:07:40;;;;;;;;;;;5.60;99.90;;;;;;5156824;27;19960;-43
2022/11/13 00:10:06;;;;;;;;;;;5.60;99.90;;;;;;5155847;27;20250;-41
2022/11/13 00:12:32;;;;;;;;;;;5.70;99.90;;;;;;5156684;27;19915;-40
2022/11/13 00:14:57;;;;;;;;;;;5.70;99.90;;;;;;5156120;27;19912;-39
2022/11/13 00:17:22;;;;;;;;;;;5.80;99.90;;;;;;5156655;27;19918;-41
2022/11/13 00:19:48;;;;;;;;;;;5.90;99.90;;;;;;5157149;27;19911;-39
2022/11/13 00:22:14;;;;;;;;;;;5.90;99.90;;;;;;5155994;27;19974;-41
2022/11/13 00:24:39;;;;;;;;;;;6.00;99.90;;;;;;5156808;27;20003;-41
2022/11/13 00:27:05;;;;;;;;;;;6.10;99.90;;;;;;5156625;27;19953;-41
2022/11/13 00:29:31;;;;;;;;;;;6.10;99.90;;;;;;5154870;27;19994;-39
2022/11/13 00:31:56;;;;;;;;;;;6.10;99.90;;;;;;5156307;27;19915;-45
2022/11/13 00:34:22;;;;;;;;;;;6.10;99.90;;;;;;5156627;27;19918;-39
2022/11/13 00:36:47;;;;;;;;;;;6.10;99.90;;;;;;5155614;27;19918;-40
2022/11/13 00:39:12;;;;;;;;;;;6.20;99.90;;;;;;5156505;27;19926;-39
2022/11/13 00:41:38;;;;;;;;;;;6.20;99.90;;;;;;5156837;27;20013;-40
2022/11/13 00:44:03;;;;;;;;;;;6.30;99.90;;;;;;5155165;27;19918;-39
2022/11/13 00:46:29;;;;;;;;;;;6.30;99.90;;;;;;5156196;27;19911;-39
2022/11/13 00:48:54;;;;;;;;;;;6.40;99.90;;;;;;5155730;27;19993;-40
2022/11/13 00:51:20;;;;;;;;;;;6.40;99.90;;;;;;5155469;27;20384;-40
2022/11/13 00:53:46;;;;;;;;;;;6.40;99.90;;;;;;5155952;27;19911;-39
2022/11/13 00:56:11;;;;;;;;;;;6.40;99.90;;;;;;5155724;27;19954;-40
2022/11/13 00:58:37;;;;;;;;;;;6.40;99.90;;;;;;5154428;27;19911;-39
2022/11/13 01:01:04;;;;;;;;;;;6.50;99.90;;;;;;5154951;27;19919;-40
2022/11/13 01:03:29;;;;;;;;;;;6.50;99.90;;;;;;5156219;27;19953;-40
2022/11/13 01:05:55;;;;;;;;;;;6.50;99.90;;;;;;5155305;27;19943;-43
2022/11/13 01:08:20;;;;;;;;;;;6.50;99.90;;;;;;5156320;27;19912;-39
2022/11/13 01:10:47;;;;;;;;;;;6.50;99.90;;;;;;5156293;27;19915;-39
2022/11/13 01:13:13;;;;;;;;;;;6.50;99.90;;;;;;5155334;27;19918;-42
2022/11/13 01:15:39;;;;;;;;;;;6.50;99.90;;;;;;5153736;27;20581;-39
2022/11/13 01:18:05;;;;;;;;;;;6.50;99.90;;;;;;5154766;27;19915;-43
2022/11/13 01:20:31;;;;;;;;;;;6.50;99.90;;;;;;5154891;27;19930;-41
2022/11/13 01:22:57;;;;;;;;;;;6.50;99.90;;;;;;5155312;27;20400;-40
2022/11/13 01:25:23;;;;;;;;;;;6.50;99.90;;;;;;5136046;27;20074;-41
2022/11/13 01:27:48;;;;;;;;;;;6.50;99.90;;;;;;5155146;27;19911;-40
2022/11/13 01:30:14;;;;;;;;;;;6.50;99.90;;;;;;5155635;27;20066;-40
2022/11/13 01:32:39;;;;;;;;;;;6.50;99.90;;;;;;5154587;27;19911;-40
2022/11/13 01:35:05;;;;;;;;;;;6.60;99.90;;;;;;5155482;27;19918;-41
2022/11/13 01:37:30;;;;;;;;;;;6.60;99.90;;;;;;5155247;27;20424;-43
2022/11/13 01:39:56;;;;;;;;;;;6.60;99.90;;;;;;5154607;27;19918;-39
2022/11/13 01:42:21;;;;;;;;;;;6.60;99.90;;;;;;5155252;27;19923;-39
2022/11/13 01:45:01;;;;;;;;;;;6.70;99.90;;;;;;5154650;27;19950;-41
2022/11/13 01:47:27;;;;;;;;;;;6.70;99.90;;;;;;5154356;27;19911;-44
2022/11/13 01:49:54;;;;;;;;;;;6.70;99.90;;;;;;5154903;27;20280;-39
2022/11/13 01:52:20;;;;;;;;;;;6.70;99.90;;;;;;5154842;27;19918;-40
2022/11/13 01:54:47;;;;;;;;;;;6.70;99.90;;;;;;5153539;27;19911;-41
2022/11/13 01:57:13;;;;;;;;;;;6.70;99.90;;;;;;5153812;27;19915;-42
2022/11/13 01:59:40;;;;;;;;;;;6.70;99.90;;;;;;5154402;27;19992;-42
2022/11/13 02:02:06;;;;;;;;;;;6.70;99.90;;;;;;5153937;27;19941;-40
2022/11/13 02:04:31;;;;;;;;;;;6.70;99.90;;;;;;5154010;27;20366;-39
2022/11/13 02:07:01;;;;;;;;;;;6.70;99.90;;;;;;5154860;27;20381;-40
2022/11/13 02:09:32;;;;;;;;;;;6.70;99.90;;;;;;5153917;27;19911;-41
2022/11/13 02:11:58;;;;;;;;;;;6.70;99.90;;;;;;5153864;27;19926;-41
2022/11/13 02:14:24;;;;;;;;;;;6.60;99.90;;;;;;5153919;27;19911;-40
2022/11/13 02:16:51;;;;;;;;;;;6.60;99.90;;;;;;5154592;27;19919;-40
2022/11/13 02:19:20;;;;;;;;;;;6.50;99.90;;;;;;5154241;27;19911;-44
2022/11/13 02:21:50;;;;;;;;;;;6.50;99.90;;;;;;5153118;27;19919;-40
2022/11/13 02:24:21;;;;;;;;;;;6.50;99.90;;;;;;5154057;27;19923;-40
2022/11/13 02:26:48;;;;;;;;;;;6.40;99.90;;;;;;5153581;27;19971;-41
2022/11/13 02:29:14;;;;;;;;;;;6.40;99.90;;;;;;5153416;27;19911;-40
2022/11/13 02:31:39;;;;;;;;;;;6.40;99.90;;;;;;5154802;27;19936;-40
2022/11/13 02:34:05;;;;;;;;;;;6.40;99.90;;;;;;5154262;27;19911;-41
2022/11/13 02:36:30;;;;;;;;;;;6.40;99.90;;;;;;5153569;27;19911;-40
2022/11/13 02:38:58;;;;;;;;;;;6.30;99.90;;;;;;5154526;27;20262;-40
2022/11/13 02:41:24;;;;;;;;;;;6.30;99.90;;;;;;5154159;27;20301;-40
2022/11/13 02:43:49;;;;;;;;;;;6.30;99.90;;;;;;5153235;27;19915;-39
2022/11/13 02:46:14;;;;;;;;;;;6.30;99.90;;;;;;5152953;27;20328;-39
2022/11/13 02:48:40;;;;;;;;;;;6.30;99.90;;;;;;5153981;27;19934;-41
2022/11/13 02:51:05;;;;;;;;;;;6.30;99.90;;;;;;5152956;27;19956;-41
2022/11/13 02:53:31;;;;;;;;;;;6.30;99.90;;;;;;5153706;27;20313;-39
2022/11/13 02:55:57;;;;;;;;;;;6.20;99.90;;;;;;5153820;27;19956;-38
2022/11/13 02:58:22;;;;;;;;;;;6.20;99.90;;;;;;5153027;27;19918;-39
2022/11/13 03:00:47;;;;;;;;;;;6.20;99.90;;;;;;5153797;27;19977;-41
2022/11/13 03:03:13;;;;;;;;;;;6.20;99.90;;;;;;5153146;27;19911;-40
2022/11/13 03:05:38;;;;;;;;;;;6.20;99.90;;;;;;5152430;27;19918;-44
2022/11/13 03:08:04;;;;;;;;;;;6.20;99.90;;;;;;5153488;27;20422;-40
2022/11/13 03:10:30;;;;;;;;;;;6.20;99.90;;;;;;5152787;27;19919;-40
2022/11/13 03:12:57;;;;;;;;;;;6.30;99.90;;;;;;5153801;27;20285;-39
2022/11/13 03:15:22;;;;;;;;;;;6.30;99.90;;;;;;5153035;27;19915;-39
2022/11/13 03:17:48;;;;;;;;;;;6.30;99.90;;;;;;5152624;27;19935;-40
2022/11/13 03:20:13;;;;;;;;;;;6.20;99.90;;;;;;5153622;27;19956;-39
2022/11/13 03:22:38;;;;;;;;;;;6.20;99.90;;;;;;5155025;27;19918;-39
2022/11/13 03:25:04;;;;;;;;;;;6.30;99.90;;;;;;5157511;27;19947;-40
2022/11/13 03:27:31;;;;;;;;;;;6.20;99.90;;;;;;5158129;27;19915;-39
2022/11/13 03:29:57;;;;;;;;;;;6.20;99.90;;;;;;5157231;27;20280;-38
2022/11/13 03:32:22;;;;;;;;;;;6.20;99.90;;;;;;5157082;27;20365;-39
2022/11/13 03:34:48;;;;;;;;;;;6.20;99.90;;;;;;5157431;27;19911;-40
2022/11/13 03:37:13;;;;;;;;;;;6.20;99.90;;;;;;5157884;27;19955;-40
2022/11/13 03:39:38;;;;;;;;;;;6.20;99.90;;;;;;5156400;27;19912;-43
2022/11/13 03:42:04;;;;;;;;;;;6.20;99.90;;;;;;5157628;27;19923;-39
2022/11/13 03:44:29;;;;;;;;;;;6.20;99.90;;;;;;5157167;27;19923;-39
2022/11/13 03:46:55;;;;;;;;;;;6.20;99.90;;;;;;5156391;27;20365;-42
2022/11/13 03:49:20;;;;;;;;;;;6.10;99.90;;;;;;5157236;27;19911;-42
2022/11/13 03:51:46;;;;;;;;;;;6.20;99.90;;;;;;5156666;27;19918;-40
2022/11/13 03:54:12;;;;;;;;;;;6.10;99.90;;;;;;5156353;27;19922;-40
2022/11/13 03:56:37;;;;;;;;;;;6.10;99.90;;;;;;5156951;27;20434;-40
2022/11/13 03:59:02;;;;;;;;;;;6.10;99.90;;;;;;5156857;27;19911;-42
2022/11/13 04:01:28;;;;;;;;;;;6.10;99.90;;;;;;5155591;27;19949;-41
2022/11/13 04:03:54;;;;;;;;;;;6.00;99.90;;;;;;5157409;27;19954;-40
2022/11/13 04:06:20;;;;;;;;;;;6.00;99.90;;;;;;5156620;27;19919;-39
2022/11/13 04:08:46;;;;;;;;;;;6.00;99.90;;;;;;5155679;27;19963;-40
2022/11/13 04:11:11;;;;;;;;;;;6.00;99.90;;;;;;5157053;27;19919;-39
2022/11/13 04:13:37;;;;;;;;;;;6.10;99.90;;;;;;5156647;27;19911;-41
2022/11/13 04:16:02;;;;;;;;;;;6.10;99.90;;;;;;5156006;27;19911;-39
2022/11/13 04:18:28;;;;;;;;;;;6.10;99.90;;;;;;5157217;27;19918;-40
2022/11/13 04:21:00;;;;;;;;;;;6.10;99.90;;;;;;5155391;27;19937;-40
2022/11/13 04:23:26;;;;;;;;;;;6.10;99.90;;;;;;5156567;27;19915;-41
2022/11/13 04:25:51;;;;;;;;;;;6.10;99.90;;;;;;5156214;27;19919;-40
2022/11/13 04:28:17;;;;;;;;;;;6.10;99.90;;;;;;5155225;27;19915;-42
2022/11/13 04:30:42;;;;;;;;;;;6.00;99.90;;;;;;5156913;27;20261;-40
2022/11/13 04:33:07;;;;;;;;;;;6.10;99.90;;;;;;5156474;27;19963;-41
2022/11/13 04:35:33;;;;;;;;;;;6.10;99.90;;;;;;5155321;27;19911;-42
2022/11/13 04:37:59;;;;;;;;;;;6.00;99.90;;;;;;5156597;27;19918;-41
2022/11/13 04:40:24;;;;;;;;;;;6.00;99.90;;;;;;5156843;27;19911;-40
2022/11/13 04:42:50;;;;;;;;;;;6.00;99.90;;;;;;5154716;27;20002;-40
2022/11/13 04:45:21;;;;;;;;;;;6.00;99.90;;;;;;5155536;27;19975;-45
2022/11/13 04:47:46;;;;;;;;;;;6.00;99.90;;;;;;5156614;27;19912;-40
2022/11/13 04:50:13;;;;;;;;;;;6.00;99.90;;;;;;5155420;27;19915;-41
2022/11/13 04:52:38;;;;;;;;;;;6.00;99.90;;;;;;5156088;27;19918;-40
2022/11/13 04:55:04;;;;;;;;;;;6.00;99.90;;;;;;5156207;27;20343;-39
2022/11/13 04:57:30;;;;;;;;;;;6.00;99.90;;;;;;5155121;27;20018;-39
2022/11/13 04:59:55;;;;;;;;;;;6.00;99.90;;;;;;5155291;27;20001;-40
2022/11/13 05:02:21;;;;;;;;;;;6.00;99.90;;;;;;5156553;27;19926;-39
2022/11/13 05:04:46;;;;;;;;;;;5.90;99.90;;;;;;5154631;27;19917;-40
2022/11/13 05:07:12;;;;;;;;;;;6.00;99.90;;;;;;5156517;27;19915;-39
2022/11/13 05:09:37;;;;;;;;;;;5.90;99.90;;;;;;5155523;27;20293;-40
2022/11/13 05:12:06;;;;;;;;;;;5.90;99.90;;;;;;5155010;27;20376;-41
2022/11/13 05:14:35;;;;;;;;;;;5.90;99.90;;;;;;5154674;27;19951;-40
2022/11/13 05:17:01;;;;;;;;;;;5.90;99.90;;;;;;5155417;27;20002;-48
2022/11/13 05:19:27;;;;;;;;;;;5.90;99.90;;;;;;5155885;27;19960;-39
2022/11/13 05:21:52;;;;;;;;;;;5.80;99.90;;;;;;5155540;27;19962;-39
2022/11/13 05:24:18;;;;;;;;;;;5.70;99.90;;;;;;5155532;27;20393;-40
2022/11/13 05:26:43;;;;;;;;;;;5.80;99.90;;;;;;5155220;27;20052;-39
2022/11/13 05:29:09;;;;;;;;;;;5.70;99.90;;;;;;5154901;27;20258;-42
2022/11/13 05:31:34;;;;;;;;;;;5.70;99.90;;;;;;5154254;27;19918;-39
2022/11/13 05:34:02;;;;;;;;;;;5.70;99.90;;;;;;5155596;27;20402;-40
2022/11/13 05:36:27;;;;;;;;;;;5.70;99.90;;;;;;5155344;27;19919;-41
2022/11/13 05:38:52;;;;;;;;;;;5.70;99.90;;;;;;5155255;27;19907;-38
2022/11/13 05:41:19;;;;;;;;;;;5.70;99.90;;;;;;5155409;27;19919;-39
2022/11/13 05:43:45;;;;;;;;;;;5.60;99.90;;;;;;5155385;27;19922;-40
2022/11/13 05:46:11;;;;;;;;;;;5.60;99.90;;;;;;5153023;27;19920;-40
2022/11/13 05:48:37;;;;;;;;;;;5.60;99.90;;;;;;5154858;27;19911;-39
2022/11/13 05:51:04;;;;;;;;;;;5.60;99.90;;;;;;5154991;27;19918;-44
2022/11/13 05:53:29;;;;;;;;;;;5.50;99.90;;;;;;5153681;27;19963;-40
2022/11/13 05:55:58;;;;;;;;;;;5.50;99.90;;;;;;5155183;27;19915;-41
2022/11/13 05:58:24;;;;;;;;;;;5.40;99.90;;;;;;5154757;27;19936;-40
2022/11/13 06:00:49;;;;;;;;;;;5.40;99.90;;;;;;5153527;27;19915;-39
2022/11/13 06:03:15;;;;;;;;;;;5.30;99.90;;;;;;5154573;27;19918;-39
2022/11/13 06:05:40;;;;;;;;;;;5.30;99.90;;;;;;5154156;27;19925;-41
2022/11/13 06:08:05;;;;;;;;;;;5.30;99.90;;;;;;5154267;27;19914;-39
2022/11/13 06:10:31;;;;;;;;;;;5.20;99.90;;;;;;5154530;27;20377;-40
2022/11/13 06:12:56;;;;;;;;;;;5.30;99.90;;;;;;5154299;27;19988;-39
2022/11/13 06:15:22;;;;;;;;;;;5.20;99.90;;;;;;5153699;27;19915;-39
2022/11/13 06:17:47;;;;;;;;;;;5.20;99.90;;;;;;5153776;27;19921;-39
2022/11/13 06:20:13;;;;;;;;;;;5.20;99.90;;;;;;5154656;27;19943;-43
2022/11/13 06:22:39;;;;;;;;;;;5.20;99.90;;;;;;5153290;27;20361;-39
2022/11/13 06:25:04;;;;;;;;;;;5.20;99.90;;;;;;5153196;27;19954;-40
2022/11/13 06:27:30;;;;;;;;;;;5.20;99.90;;;;;;5153120;27;19918;-39
2022/11/13 06:29:55;;;;;;;;;;;5.20;99.90;;;;;;5154360;27;19915;-40
2022/11/13 06:32:21;;;;;;;;;;;5.20;99.90;;;;;;5153466;27;19925;-39
2022/11/13 06:34:46;;;;;;;;;;;5.20;99.90;;;;;;5153466;27;20278;-40
2022/11/13 06:37:12;;;;;;;;;;;5.20;99.90;;;;;;5153971;27;19915;-40
2022/11/13 06:39:37;;;;;;;;;;;5.10;99.90;;;;;;5153230;27;19918;-41
2022/11/13 06:42:02;;;;;;;;;;;5.10;99.90;;;;;;5153419;27;19926;-43
2022/11/13 06:44:28;;;;;;;;;;;5.10;99.90;;;;;;5152230;27;19919;-40
2022/11/13 06:46:53;;;;;;;;;;;5.10;99.90;;;;;;5153700;27;20339;-40
2022/11/13 06:49:19;;;;;;;;;;;5.20;99.90;;;;;;5152998;27;19946;-41
2022/11/13 06:51:44;;;;;;;;;;;5.10;99.90;;;;;;5154025;27;20010;-40
2022/11/13 06:54:10;;;;;;;;;;;5.10;99.90;;;;;;5153847;27;19911;-43
2022/11/13 06:56:35;;;;;;;;;;;5.20;99.90;;;;;;5152304;27;19911;-41
2022/11/13 06:59:01;;;;;;;;;;;5.20;99.90;;;;;;5153048;27;19911;-41
2022/11/13 07:01:26;;;;;;;;;;;5.20;99.90;;;;;;5153261;27;19926;-40
2022/11/13 07:03:52;;;;;;;;;;;5.20;99.90;;;;;;5151458;27;20616;-40
2022/11/13 07:06:19;;;;;;;;;;;5.20;99.90;;;;;;5153650;27;20014;-42
2022/11/13 07:08:45;;;;;;;;;;;5.20;99.90;;;;;;5154071;27;19972;-39
2022/11/13 07:11:12;;;;;;;;;;;5.20;99.90;;;;;;5153143;27;19918;-40
2022/11/13 07:13:38;;;;;;;;;;;5.20;99.90;;;;;;5153111;27;19930;-44
2022/11/13 07:16:05;;;;;;;;;;;5.30;99.90;;;;;;5153342;27;20373;-41
2022/11/13 07:18:31;;;;;;;;;;;5.30;99.90;;;;;;5152972;27;19907;-40
2022/11/13 07:20:56;;;;;;;;;;;5.20;99.90;;;;;;5153299;27;19977;-39
2022/11/13 07:23:22;;;;;;;;;;;5.30;99.90;;;;;;5154194;27;19990;-42
2022/11/13 07:25:47;;;;;;;;;;;5.30;99.90;;;;;;5151245;27;20388;-41
2022/11/13 07:28:13;;;;;;;;;;;5.30;99.90;;;;;;5152838;27;20373;-41
2022/11/13 07:30:38;;;;;;;;;;;5.30;99.90;;;;;;5152022;27;19907;-45
2022/11/13 07:33:04;;;;;;;;;;;5.30;99.90;;;;;;5149822;27;19915;-39
2022/11/13 07:35:29;;;;;;;;;;;5.30;99.90;;;;;;5152652;27;20365;-39
2022/11/13 07:37:55;;;;;;;;;;;5.30;99.90;;;;;;5151779;27;19910;-39
2022/11/13 07:40:21;;;;;;;;;;;5.30;99.90;;;;;;5152626;27;20002;-42
2022/11/13 07:42:46;;;;;;;;;;;5.40;99.90;;;;;;5152431;27;19915;-39
2022/11/13 07:45:12;;;;;;;;;;;5.40;99.90;;;;;;5151702;27;20416;-39
2022/11/13 07:47:38;;;;;;;;;;;5.40;99.90;;;;;;5151925;27;19913;-39
2022/11/13 07:50:03;;;;;;;;;;;5.40;99.90;;;;;;5151833;27;19919;-40
2022/11/13 07:52:29;;;;;;;;;;;5.50;99.90;;;;;;5151146;27;19915;-44
2022/11/13 07:54:54;;;;;;;;;;;5.50;99.90;;;;;;5151316;27;19917;-39
2022/11/13 07:57:21;;;;;;;;;;;5.50;99.90;;;;;;5152391;27;19911;-42
2022/11/13 07:59:47;;;;;;;;;;;5.60;99.90;;;;;;5151508;27;19998;-40
2022/11/13 08:02:14;;;;;;;;;;;5.60;99.90;;;;;;5152178;27;19945;-42
2022/11/13 08:04:40;;;;;;;;;;;5.70;99.90;;;;;;5152451;27;19911;-39
2022/11/13 08:07:06;;;;;;;;;;;5.70;99.90;;;;;;5151685;27;20374;-40
2022/11/13 08:09:31;;;;;;;;;;;5.80;99.90;;;;;;5154959;27;20303;-42
2022/11/13 08:11:57;;;;;;;;;;;5.90;99.90;;;;;;5156052;27;20314;-39
2022/11/13 08:14:22;;;;;;;;;;;5.90;99.90;;;;;;5155640;27;20019;-40
2022/11/13 08:16:48;;;;;;;;;;;6.00;99.90;;;;;;5156063;27;19907;-41
2022/11/13 08:19:13;;;;;;;;;;;6.00;99.90;;;;;;5156140;27;20294;-40
2022/11/13 08:21:38;;;;;;;;;;;6.00;99.90;;;;;;5155142;27;19922;-44
2022/11/13 08:24:04;;;;;;;;;;;6.10;99.90;;;;;;5156101;27;19915;-39
2022/11/13 08:26:29;;;;;;;;;;;6.20;99.90;;;;;;5153295;27;20372;-41
2022/11/13 08:28:55;;;;;;;;;;;6.20;99.90;;;;;;5154990;27;20312;-41
2022/11/13 08:31:20;;;;;;;;;;;6.30;99.90;;;;;;5156076;27;19934;-40
2022/11/13 08:33:46;;;;;;;;;;;6.30;99.90;;;;;;5155728;27;19907;-40
2022/11/13 08:36:11;;;;;;;;;;;6.30;99.90;;;;;;5155193;27;19907;-41
2022/11/13 08:38:37;;;;;;;;;;;6.40;99.90;;;;;;5155656;27;19907;-39
2022/11/13 08:41:04;;;;;;;;;;;6.40;99.90;;;;;;5154847;27;19915;-41
2022/11/13 08:43:30;;;;;;;;;;;6.40;99.90;;;;;;5152909;27;20251;-40
2022/11/13 08:45:55;;;;;;;;;;;6.50;99.90;;;;;;5156694;27;19964;-42
2022/11/13 08:48:21;;;;;;;;;;;6.60;99.90;;;;;;5156290;27;20021;-41
2022/11/13 08:50:50;;;;;;;;;;;6.60;99.90;;;;;;5156880;27;19911;-40
2022/11/13 08:53:15;;;;;;;;;;;6.70;99.90;;;;;;5156958;27;19911;-39
2022/11/13 08:55:41;;;;;;;;;;;6.70;99.90;;;;;;5155982;27;19970;-41
2022/11/13 08:58:07;;;;;;;;;;;6.80;99.90;;;;;;5157026;27;20270;-40
2022/11/13 09:00:33;;;;;;;;;;;6.80;99.90;;;;;;5156733;27;19911;-39
2022/11/13 09:02:59;;;;;;;;;;;6.90;99.90;;;;;;5156082;27;19907;-43
2022/11/13 09:05:25;;;;;;;;;;;7.00;99.90;;;;;;5156426;27;19922;-42
2022/11/13 09:07:54;;;;;;;;;;;7.10;99.90;;;;;;5156432;27;19907;-40
2022/11/13 09:10:19;;;;;;;;;;;7.10;99.90;;;;;;5155923;27;19914;-39
2022/11/13 09:12:44;;;;;;;;;;;7.20;99.90;;;;;;5156447;27;19907;-39
2022/11/13 09:15:10;;;;;;;;;;;7.20;99.90;;;;;;5156418;27;20019;-40
2022/11/13 09:17:36;;;;;;;;;;;7.30;99.90;;;;;;5155752;27;19959;-39
2022/11/13 09:20:02;;;;;;;;;;;7.30;99.90;;;;;;5155302;27;19912;-40
2022/11/13 09:22:27;;;;;;;;;;;7.40;99.90;;;;;;5156305;27;20156;-40
2022/11/13 09:24:53;;;;;;;;;;;7.50;99.90;;;;;;5155640;27;19911;-42
2022/11/13 09:27:18;;;;;;;;;;;7.60;99.90;;;;;;5156370;27;19907;-40
2022/11/13 09:29:44;;;;;;;;;;;7.70;99.90;;;;;;5156192;27;20354;-40
2022/11/13 09:32:09;;;;;;;;;;;7.80;99.90;;;;;;5155238;27;19907;-41
2022/11/13 09:34:35;;;;;;;;;;;7.90;99.90;;;;;;5155980;27;19907;-43
2022/11/13 09:37:00;;;;;;;;;;;8.00;99.90;;;;;;5156142;27;19975;-40
2022/11/13 09:39:26;;;;;;;;;;;8.10;99.90;;;;;;5155371;27;19960;-39
2022/11/13 09:41:57;;;;;;;;;;;8.20;99.90;;;;;;5155523;27;20606;-39
2022/11/13 09:44:25;;;;;;;;;;;8.20;99.90;;;;;;5155109;27;19923;-40
2022/11/13 09:46:50;;;;;;;;;;;8.30;99.90;;;;;;5156438;27;20265;-40
2022/11/13 09:49:31;;;;;;;;;;;8.30;99.90;;;;;;5155813;27;19911;-39
2022/11/13 09:52:12;;;;;;;;;;;8.40;99.90;;;;;;5154840;27;19911;-41
2022/11/13 09:54:37;;;;;;;;;;;8.40;99.90;;;;;;5155877;27;19907;-40
2022/11/13 09:57:03;;;;;;;;;;;8.50;99.90;;;;;;5155794;27;20250;-39
2022/11/13 09:59:30;;;;;;;;;;;8.50;99.90;;;;;;5154202;27;22412;-40
2022/11/13 10:02:14;;;;;;;;;;;8.50;99.90;;;;;;5155599;27;19998;-40
2022/11/13 10:04:48;;;;;;;;;;;8.60;99.90;;;;;;5155166;27;19911;-40
2022/11/13 10:07:26;;;;;;;;;;;8.60;99.90;;;;;;5155168;27;19907;-40
2022/11/13 10:09:57;;;;;;;;;;;8.60;99.90;;;;;;5155380;27;19968;-39
2022/11/13 10:12:22;;;;;;;;;;;8.70;99.90;;;;;;5155055;27;19911;-48
2022/11/13 10:14:50;;;;;;;;;;;8.80;99.90;;;;;;5154867;27;19908;-41
2022/11/13 10:17:20;;;;;;;;;;;9.00;99.90;;;;;;5155391;27;19907;-40
2022/11/13 10:19:54;;;;;;;;;;;9.10;99.90;;;;;;5154439;27;19967;-40
2022/11/13 10:22:28;;;;;;;;;;;9.30;99.90;;;;;;5155170;27;20373;-39
2022/11/13 10:24:57;;;;;;;;;;;9.50;99.90;;;;;;5155172;27;19929;-40
2022/11/13 10:27:22;;;;;;;;;;;9.70;99.90;;;;;;5154327;27;20369;-39
2022/11/13 10:29:48;;;;;;;;;;;9.90;99.90;;;;;;5155175;27;19907;-40
2022/11/13 10:32:20;;;;;;;;;;;9.90;99.90;;;;;;5154842;27;19911;-41
2022/11/13 10:34:47;;;;;;;;;;;10.00;99.90;;;;;;5153786;27;19911;-41
2022/11/13 10:37:43;;;;;;;;;;;10.20;99.90;;;;;;5155024;27;20325;-42
2022/11/13 10:40:08;;;;;;;;;;;10.30;99.90;;;;;;5132615;27;19907;-39
2022/11/13 10:42:37;;;;;;;;;;;10.60;99.90;;;;;;5154059;27;19915;-40
2022/11/13 10:45:02;;;;;;;;;;;10.70;99.90;;;;;;5154541;27;19969;-40
2022/11/13 10:47:30;;;;;;;;;;;10.90;99.90;;;;;;5154767;27;20334;-41
2022/11/13 10:49:56;;;;;;;;;;;11.10;99.90;;;;;;5154110;27;19929;-42
2022/11/13 10:52:26;;;;;;;;;;;11.20;99.90;;;;;;5154097;27;19911;-40
2022/11/13 10:55:11;;;;;;;;;;;11.30;99.90;;;;;;5154001;27;19911;-40
2022/11/13 10:57:36;;;;;;;;;;;11.40;99.90;;;;;;5154700;27;20002;-40
2022/11/13 11:00:17;;;;;;;;;;;11.50;99.90;;;;;;5154764;27;19946;-41
2022/11/13 11:02:47;;;;;;;;;;;11.50;99.90;;;;;;5153740;27;20098;-40
2022/11/13 11:05:20;;;;;;;;;;;11.70;99.90;;;;;;5154319;27;20373;-40
2022/11/13 11:07:45;;;;;;;;;;;11.70;99.90;;;;;;5154531;27;19907;-40
2022/11/13 11:12:14;;;;;;;;;;;11.80;99.90;;;;;;5153660;27;19914;-42
2022/11/13 11:13:23;;;;;;;;;;;11.90;99.90;;;;;;5154360;27;20362;-45
2022/11/13 11:15:54;;;;;;;;;;;12.00;99.90;;;;;;5153615;27;20349;-40
2022/11/13 11:18:20;;;;;;;;;;;12.10;99.90;;;;;;5154481;27;19973;-40
2022/11/13 11:20:45;;;;;;;;;;;12.20;99.90;;;;;;5154309;27;20365;-42
2022/11/13 11:23:32;;;;;;;;;;;12.30;99.90;;;;;;5153703;27;19907;-40
2022/11/13 11:25:59;;;;;;;;;;;12.40;99.90;;;;;;5154629;27;19908;-41
2022/11/13 11:28:30;;;;;;;;;;;12.50;99.90;;;;;;5154366;27;19923;-40
2022/11/13 11:31:05;;;;;;;;;;;12.60;99.90;;;;;;5153411;27;20041;-40
2022/11/13 11:33:32;;;;;;;;;;;12.60;99.90;;;;;;5154379;27;20145;-42
2022/11/13 11:36:01;;;;;;;;;;;12.70;99.90;;;;;;5153869;27;19918;-43
2022/11/13 11:38:46;;;;;;;;;;;12.70;99.90;;;;;;5153487;27;19907;-40
2022/11/13 11:41:13;;;;;;;;;;;12.80;99.90;;;;;;5153470;27;19961;-41
2022/11/13 11:43:42;;;;;;;;;;;12.80;99.90;;;;;;5155307;27;19955;-42
2022/11/13 11:46:11;;;;;;;;;;;12.90;99.90;;;;;;5156925;27;19919;-40
2022/11/13 11:48:37;;;;;;;;;;;12.90;99.90;;;;;;5158256;27;19911;-40
2022/11/13 11:51:06;;;;;;;;;;;13.00;99.90;;;;;;5157020;27;20007;-43
2022/11/13 11:53:40;;;;;;;;;;;13.00;99.90;;;;;;5158229;27;19914;-40
2022/11/13 11:56:32;;;;;;;;;;;13.00;99.90;;;;;;5158119;27;20269;-40
2022/11/13 11:59:04;;;;;;;;;;;13.00;99.90;;;;;;5152022;27;20019;-40
2022/11/13 12:01:35;;;;;;;;;;;13.20;99.90;;;;;;5158066;27;19918;-42
2022/11/13 12:04:19;;;;;;;;;;;13.20;99.90;;;;;;5157769;27;19918;-45
2022/11/13 12:06:59;;;;;;;;;;;13.30;99.90;;;;;;5157129;27;19918;-41
2022/11/13 12:09:27;;;;;;;;;;;13.30;99.90;;;;;;5158001;27;20377;-41
2022/11/13 12:12:04;;;;;;;;;;;13.30;99.90;;;;;;5157846;27;20357;-41
2022/11/13 12:14:36;;;;;;;;;;;13.40;99.90;;;;;;5157306;27;20322;-41
2022/11/13 12:17:10;;;;;;;;;;;13.40;99.90;;;;;;5157567;27;19916;-40
2022/11/13 12:19:44;;;;;;;;;;;13.40;99.90;;;;;;5156919;27;19907;-40
2022/11/13 12:22:20;;;;;;;;;;;13.40;99.90;;;;;;5157567;27;20010;-41
2022/11/13 12:24:48;;;;;;;;;;;13.50;99.90;;;;;;5157567;27;19951;-41
2022/11/13 12:27:43;;;;;;;;;;;13.50;99.90;;;;;;5156735;27;19907;-42
2022/11/13 12:30:29;;;;;;;;;;;13.60;99.90;;;;;;5134956;27;20349;-42
2022/11/13 12:33:04;;;;;;;;;;;13.60;99.90;;;;;;5156643;27;20277;-43
2022/11/13 12:35:30;;;;;;;;;;;13.60;99.90;;;;;;5157253;27;19961;-42
2022/11/13 12:38:08;;;;;;;;;;;13.60;99.90;;;;;;5157193;27;19942;-40
2022/11/13 12:40:47;;;;;;;;;;;13.70;99.90;;;;;;5156623;27;19911;-40
2022/11/13 12:43:42;;;;;;;;;;;13.70;99.90;;;;;;5156936;27;20204;-41
2022/11/13 12:46:09;;;;;;;;;;;13.70;99.90;;;;;;5134067;27;19954;-42
2022/11/13 12:48:35;;;;;;;;;;;13.80;99.90;;;;;;5156347;27;20436;-41
2022/11/13 12:51:03;;;;;;;;;;;14.00;99.90;;;;;;5156920;27;20353;-40
2022/11/13 12:53:30;;;;;;;;;;;14.00;99.90;;;;;;5157063;27;19960;-41
2022/11/13 12:56:02;;;;;;;;;;;14.00;99.90;;;;;;5155894;27;19946;-42
2022/11/13 12:58:29;;;;;;;;;;;13.90;99.90;;;;;;5156928;27;20441;-42
2022/11/13 13:01:03;;;;;;;;;;;13.80;99.90;;;;;;5156663;27;19972;-41
2022/11/13 13:03:48;;;;;;;;;;;13.90;99.90;;;;;;5156319;27;20001;-45
2022/11/13 13:06:29;;;;;;;;;;;14.00;99.90;;;;;;5156782;27;19922;-43
2022/11/13 13:08:57;;;;;;;;;;;14.10;99.90;;;;;;5155828;27;19907;-41
2022/11/13 13:11:34;;;;;;;;;;;14.30;99.90;;;;;;5156673;27;19914;-43
2022/11/13 13:13:59;;;;;;;;;;;14.40;99.90;;;;;;5155831;27;19907;-42
2022/11/13 13:16:26;;;;;;;;;;;14.60;99.90;;;;;;5155874;27;19917;-42
2022/11/13 13:18:52;;;;;;;;;;;14.90;99.90;;;;;;5156514;27;19990;-41
2022/11/13 13:21:19;;;;;;;;;;;15.20;99.90;;;;;;5156395;27;20026;-40
2022/11/13 13:23:45;;;;;;;;;;;15.60;99.90;;;;;;5155585;27;19918;-41
2022/11/13 13:26:18;;;;;;;;;;;15.90;99.90;;;;;;5156411;27;19907;-41
2022/11/13 13:28:49;;;;;;;;;;;16.20;99.90;;;;;;5156335;27;20285;-42
2022/11/13 13:31:38;;;;;;;;;;;16.40;99.90;;;;;;5155560;27;19942;-41
2022/11/13 13:34:18;;;;;;;;;;;16.40;99.90;;;;;;5156272;27;19907;-43
2022/11/13 13:36:49;;;;;;;;;;;16.20;99.90;;;;;;5155417;27;20391;-43
2022/11/13 13:39:23;;;;;;;;;;;16.20;99.90;;;;;;5156187;27;19999;-42
2022/11/13 13:42:05;;;;;;;;;;;16.30;99.90;;;;;;5156076;27;19911;-41
2022/11/13 13:44:30;;;;;;;;;;;16.50;99.90;;;;;;5154558;27;19919;-42
2022/11/13 13:46:56;;;;;;;;;;;16.70;99.90;;;;;;5156072;27;19907;-42
2022/11/13 13:49:23;;;;;;;;;;;16.80;99.90;;;;;;5156034;27;19908;-41
2022/11/13 13:51:50;;;;;;;;;;;17.00;99.90;;;;;;5155100;27;19907;-42
2022/11/13 13:54:22;;;;;;;;;;;17.20;99.90;;;;;;5155982;27;19908;-43
2022/11/13 13:56:48;;;;;;;;;;;17.40;99.90;;;;;;5155896;27;19930;-42
2022/11/13 13:59:16;;;;;;;;;;;17.50;99.90;;;;;;5154931;27;20369;-41
2022/11/13 14:01:51;;;;;;;;;;;17.80;99.90;;;;;;5155628;27;19915;-42
2022/11/13 14:04:18;;;;;;;;;;;17.90;99.90;;;;;;5155664;27;20371;-41
2022/11/13 14:06:51;;;;;;;;;;;18.20;99.90;;;;;;5154228;27;19963;-41
2022/11/13 14:09:17;;;;;;;;;;;18.30;99.90;;;;;;5155536;27;20393;-43
2022/11/13 14:11:43;;;;;;;;;;;18.40;99.90;;;;;;5154722;27;19908;-41
2022/11/13 14:14:19;;;;;;;;;;;18.50;99.90;;;;;;5155167;27;20273;-43
2022/11/13 14:16:48;;;;;;;;;;;18.60;99.90;;;;;;5155437;27;19907;-42
2022/11/13 14:19:13;;;;;;;;;;;18.60;99.90;;;;;;5154778;27;19950;-43
2022/11/13 14:21:39;;;;;;;;;;;18.70;99.60;;;;;;5155056;27;19980;-42
2022/11/13 14:24:07;;;;;;;;;;;18.70;99.90;;;;;;5155185;27;19907;-44
2022/11/13 14:26:33;;;;;;;;;;;18.70;99.60;;;;;;5154546;27;19907;-42
2022/11/13 14:28:59;;;;;;;;;;;18.70;99.50;;;;;;5155151;27;19907;-43